Arriba, Colorado
Current Conditions -  °F | °C
As of 4:55 PM on Friday 28 Nov 2014 (Local Time) from KLIC Reporting Station
Clear Clear  
Wind Chill: 45°   Ceiling: Unl
Heat Index: 45°   Visibility: 10mi
Dew Point: 14°   Wind: 0mph
Humidity: 29%   Direction: NA
Pressure: 29.84"   Gusts: NA
Location:  39.29°N, 103.28°W
Report Text: KLIC 282355Z AUTO 00000KT 10SM CLR 07/M10 A2984 RMK AO2 SLP095 T00721100 10217 20056 56007
Loading
Personal Weather Stations






























Interactive Weather Map New forecast layout! Learn more

10-Day Weather Forecast

Advertisements
Track Severe Weather on mobile